Terminal Aerodrome Forecast
Issued by NWS Hastings, NE

Home | Current Version | Previous Version | Text Only | Print | Product List | Glossary On
Versions: 1 2 3 4 5 6 7 8 9 10 11 12 13 14 15 16 17 18 19 20 21 22 23 24 25 26
000
FTUS43 KGID 310539
TAFGRI
TAF
KGRI 310539Z 3106/0106 19012KT P6SM BKN250 WS005/20042KT
     FM311100 19012G18KT P6SM BKN250
     FM311900 20009KT P6SM VCTS SCT050CB BKN250
     FM010000 02007KT P6SM BKN250
      TEMPO 0102/0106 P6SM TSRA BKN050CB=

USA.gov is the U.S. government's official web portal to all federal, state and local government web resources and services.